August Explorer — 7JWP — position and weather

sailwx.info

Track history (hours):
 
Tides and Currents Weather Stations Pressure Air Temp Water Temp Dewpoint Dewpoint Depression Visibility Wind Speed Wind Dir Waves Ship Positions

August Explorer

Last reported at 2017-Nov-10 12:26 UTC. Time now 2017-Dec-12 21:57 UTC.
Position N 34°47' E 139°42'.
Warning: this ship's position is 32 days out of date.

Length 90 m; draft 3.4 m.

Type: Other ship. MMSI: 431370000.

Date/timePositionNaut miles runAvg speedWind from/ knotsBaromVisibWave heightAir tempDewpointWater temp
2017-Nov-10 12:26N 34°47' E 139°42'5 8.0
2017-Nov-10 11:51N 34°52' E 139°43'5 9.3
2017-Nov-10 11:20N 34°57' E 139°43'3 9.8
2017-Nov-10 11:00N 34°60' E 139°44'5 9.6
2017-Nov-10 10:30N 35°05' E 139°45'5 9.5
2017-Nov-10 10:00N 35°09' E 139°46'5 9.4
2017-Nov-10 09:30N 35°14' E 139°46'5 9.2
2017-Nov-10 09:00N 35°18' E 139°44'5 9.1
2017-Nov-10 08:31N 35°22' E 139°42'5 9.1
2017-Nov-10 08:01N 35°27' E 139°43'2 4.3
2017-Nov-10 07:30N 35°28' E 139°41'0 0.1
2017-Nov-10 06:58N 35°28' E 139°41'0 0.0
2017-Nov-10 06:28N 35°28' E 139°41'0 0.0
2017-Nov-10 05:58N 35°28' E 139°41'0 0.0
2017-Nov-10 05:28N 35°28' E 139°41'0 0.0
2017-Nov-10 04:58N 35°28' E 139°41'0 0.0
2017-Nov-10 04:28N 35°28' E 139°41'0 0.0
2017-Nov-10 03:58N 35°28' E 139°41'0 0.0
2017-Nov-10 03:28N 35°28' E 139°41'0 0.0
2017-Nov-10 02:58N 35°28' E 139°41'0 0.0
2017-Nov-10 02:28N 35°28' E 139°41'0 0.0
2017-Nov-10 01:58N 35°28' E 139°41'0 0.0
2017-Nov-10 01:28N 35°28' E 139°41'0 0.0
2017-Nov-10 00:58N 35°28' E 139°41'0 0.0
2017-Nov-10 00:28N 35°28' E 139°41'0 0.0
2017-Nov-09 23:58N 35°28' E 139°41'0 0.0
2017-Nov-09 23:25N 35°28' E 139°41'0 0.0
2017-Nov-09 22:58N 35°28' E 139°41'0 0.0
2017-Nov-09 22:31N 35°28' E 139°41'3 5.4
2017-Nov-09 22:00N 35°27' E 139°44'4 7.1
2017-Nov-09 21:31N 35°28' E 139°48'4 7.3
2017-Nov-09 21:00N 35°30' E 139°52'3 5.4
2017-Nov-09 20:30N 35°29' E 139°55'0 0.2
2017-Nov-09 19:58N 35°29' E 139°55'0 0.0
2017-Nov-09 19:28N 35°29' E 139°55'0 0.1
2017-Nov-09 18:58N 35°29' E 139°55'0 0.0
2017-Nov-09 18:19N 35°29' E 139°55'0 0.0
2017-Nov-09 17:58N 35°29' E 139°55'0 0.0
2017-Nov-09 17:28N 35°29' E 139°55'0 0.0
2017-Nov-09 16:55N 35°29' E 139°55'0 0.0
2017-Nov-09 16:25N 35°29' E 139°55'0 0.0
2017-Nov-09 15:52N 35°29' E 139°55'0 0.0
2017-Nov-09 15:28N 35°29' E 139°55'0 0.0
2017-Nov-09 14:58N 35°29' E 139°55'0 0.0
2017-Nov-09 14:28N 35°29' E 139°55'0 0.0
2017-Nov-09 13:58N 35°29' E 139°55'0 0.0
2017-Nov-09 13:28N 35°29' E 139°55'0 0.0
2017-Nov-09 12:58N 35°29' E 139°55'0 0.0
2017-Nov-09 12:28N 35°29' E 139°55'0 0.0
2017-Nov-09 11:58N 35°29' E 139°55'0 0.0
2017-Nov-09 11:22N 35°29' E 139°55'0 0.0
2017-Nov-09 10:46N 35°29' E 139°55'0 0.0
2017-Nov-09 10:25N 35°29' E 139°55'0 0.0
2017-Nov-09 09:55N 35°29' E 139°55'0 0.0
2017-Nov-09 09:28N 35°29' E 139°55'0 0.1
2017-Nov-09 08:55N 35°29' E 139°55'0 0.0
2017-Nov-09 08:28N 35°29' E 139°55'0 0.0
2017-Nov-09 07:58N 35°29' E 139°55'1 1.6
2017-Nov-09 07:30N 35°29' E 139°55'3 5.8
2017-Nov-09 07:00N 35°27' E 139°58'0 0.1
2017-Nov-09 03:40N 35°27' E 139°57'0 0.0
2017-Nov-09 03:28N 35°27' E 139°57'0 0.0
2017-Nov-08 22:40N 35°27' E 139°57'0 0.0
2017-Nov-08 18:52N 35°27' E 139°57'0 0.0
2017-Nov-07 22:17N 35°27' E 139°57'1 4.9
2017-Nov-07 22:01N 35°28' E 139°58'3 5.3
2017-Nov-07 21:30N 35°29' E 139°55'4 7.7
2017-Nov-07 21:01N 35°28' E 139°51'4 8.0
2017-Nov-07 20:30N 35°25' E 139°47'4 8.5
2017-Nov-07 20:00N 35°21' E 139°45'5 9.8
2017-Nov-07 19:30N 35°16' E 139°46'510.4
2017-Nov-07 18:59N 35°11' E 139°47'4 8.3
2017-Nov-07 18:30N 35°07' E 139°45'5 6.4
2017-Nov-07 17:42N 35°03' E 139°42'1 6.7
2017-Nov-07 17:29N 35°02' E 139°40'214 5.5
2017-Nov-06 02:20N 34°42' E 135°21'0 0.0
2017-Nov-06 01:56N 34°42' E 135°21'0 0.0
2017-Nov-06 01:26N 34°42' E 135°21'0 0.0
2017-Nov-06 00:56N 34°42' E 135°21'0 0.0
2017-Nov-06 00:20N 34°42' E 135°21'0 0.0
2017-Nov-05 23:56N 34°42' E 135°21'0 0.0
2017-Nov-05 23:26N 34°42' E 135°21'0 0.0
2017-Nov-05 22:56N 34°42' E 135°21'0 0.0
2017-Nov-05 22:20N 34°42' E 135°21'0 0.0
2017-Nov-05 21:56N 34°42' E 135°21'0 0.0
2017-Nov-05 21:26N 34°42' E 135°21'0 0.0
2017-Nov-05 20:56N 34°42' E 135°21'0 0.0
2017-Nov-05 20:14N 34°42' E 135°21'0 0.0
2017-Nov-05 19:56N 34°42' E 135°21'0 0.0
2017-Nov-05 19:26N 34°42' E 135°21'0 0.0
2017-Nov-05 18:56N 34°42' E 135°21'0 0.0
2017-Nov-05 18:26N 34°42' E 135°21'0 0.0
2017-Nov-05 17:56N 34°42' E 135°21'0 0.0
2017-Nov-05 17:26N 34°42' E 135°21'0 0.0
2017-Nov-05 16:56N 34°42' E 135°21'0 0.0
2017-Nov-05 16:26N 34°42' E 135°21'0 0.0
2017-Nov-05 15:56N 34°42' E 135°21'0 0.0
2017-Nov-05 15:14N 34°42' E 135°21'0 0.0
2017-Nov-05 14:56N 34°42' E 135°21'0 0.0
2017-Nov-05 14:26N 34°42' E 135°21'0 0.0
2017-Nov-05 13:56N 34°42' E 135°21'0 0.0
2017-Nov-05 13:26N 34°42' E 135°21'0 0.0
2017-Nov-05 12:50N 34°42' E 135°21'0 0.0
2017-Nov-05 12:26N 34°42' E 135°21'0 0.0
2017-Nov-05 11:56N 34°42' E 135°21'0 0.0
2017-Nov-05 11:26N 34°42' E 135°21'0 0.0
2017-Nov-05 10:32N 34°42' E 135°21'0 0.0
2017-Nov-05 10:26N 34°42' E 135°21'0 0.0
2017-Nov-05 09:50N 34°42' E 135°21'0 0.0
2017-Nov-05 09:26N 34°42' E 135°21'0 0.0
2017-Nov-05 08:50N 34°42' E 135°21'0 0.0
2017-Nov-05 08:26N 34°42' E 135°21'0 0.0
2017-Nov-05 07:55N 34°42' E 135°21'0 0.0
2017-Nov-05 07:26N 34°42' E 135°21'0 0.0
2017-Nov-05 06:56N 34°42' E 135°21'0 0.0
2017-Nov-05 06:26N 34°42' E 135°21'0 0.0
2017-Nov-05 05:56N 34°42' E 135°21'0 0.0
2017-Nov-05 05:25N 34°42' E 135°21'0 0.0
2017-Nov-05 04:56N 34°42' E 135°21'0 0.0
2017-Nov-05 04:26N 34°42' E 135°21'0 0.0
2017-Nov-05 03:49N 34°42' E 135°21'0 0.0
2017-Nov-05 03:26N 34°42' E 135°21'0 0.0
2017-Nov-05 02:56N 34°42' E 135°21'0 0.0
2017-Nov-05 02:26N 34°42' E 135°21'0 0.0
2017-Nov-05 01:50N 34°42' E 135°21'0 0.0
2017-Nov-05 01:25N 34°42' E 135°21'0 0.0
2017-Nov-05 00:56N 34°42' E 135°21'0 0.0
2017-Nov-05 00:26N 34°42' E 135°21'0 0.0
2017-Nov-04 23:56N 34°42' E 135°21'0 0.0
2017-Nov-04 23:26N 34°42' E 135°21'0 0.0
2017-Nov-04 22:56N 34°42' E 135°21'0 0.0
2017-Nov-04 22:26N 34°42' E 135°21'0 0.0
2017-Nov-04 21:56N 34°42' E 135°21'0 0.0
2017-Nov-04 21:26N 34°42' E 135°21'0 0.0
2017-Nov-04 20:55N 34°42' E 135°21'0 0.0
2017-Nov-04 20:26N 34°42' E 135°21'0 0.0
2017-Nov-04 19:55N 34°42' E 135°21'0 0.0
2017-Nov-04 19:19N 34°42' E 135°21'0 0.0
2017-Nov-04 18:50N 34°42' E 135°21'0 0.0
2017-Nov-04 18:26N 34°42' E 135°21'0 0.0
2017-Nov-04 17:55N 34°42' E 135°21'0 0.0
2017-Nov-04 17:20N 34°42' E 135°21'0 0.0
2017-Nov-04 16:55N 34°42' E 135°21'0 0.0
2017-Nov-04 16:20N 34°42' E 135°21'0 0.0
2017-Nov-04 15:50N 34°42' E 135°21'0 0.0
2017-Nov-04 15:26N 34°42' E 135°21'0 0.0
2017-Nov-04 14:55N 34°42' E 135°21'0 0.0
2017-Nov-04 14:26N 34°42' E 135°21'0 0.0
2017-Nov-04 13:55N 34°42' E 135°21'0 0.0
2017-Nov-04 13:26N 34°42' E 135°21'0 0.0
2017-Nov-04 12:56N 34°42' E 135°21'0 0.0
2017-Nov-04 12:26N 34°42' E 135°21'0 0.0
2017-Nov-04 11:49N 34°42' E 135°21'0 0.0
2017-Nov-04 11:25N 34°42' E 135°21'0 0.0
2017-Nov-04 10:49N 34°42' E 135°21'0 0.0
2017-Nov-04 10:19N 34°42' E 135°21'0 0.0
2017-Nov-04 09:56N 34°42' E 135°21'0 0.0
2017-Nov-04 09:26N 34°42' E 135°21'0 0.0
2017-Nov-04 08:55N 34°42' E 135°21'0 0.0
2017-Nov-04 08:25N 34°42' E 135°21'0 0.0
2017-Nov-04 07:55N 34°42' E 135°21'0 0.0
2017-Nov-04 07:25N 34°42' E 135°21'0 0.0
2017-Nov-04 06:55N 34°42' E 135°21'0 0.0
2017-Nov-04 06:19N 34°42' E 135°21'0 0.0
2017-Nov-04 05:55N 34°42' E 135°21'0 0.0
2017-Nov-04 05:14N 34°42' E 135°21'0 0.0
2017-Nov-04 04:55N 34°42' E 135°21'0 0.0
2017-Nov-04 04:25N 34°42' E 135°21'0 0.0
2017-Nov-04 03:49N 34°42' E 135°21'0 0.0
2017-Nov-04 03:25N 34°42' E 135°21'0 0.0
2017-Nov-04 02:55N 34°42' E 135°21'0 0.0
2017-Nov-04 02:19N 34°42' E 135°21'0 0.0
2017-Nov-04 01:55N 34°42' E 135°21'0 0.0
2017-Nov-04 01:25N 34°42' E 135°21'0 0.0
2017-Nov-04 00:55N 34°42' E 135°21'0 0.0
2017-Nov-04 00:19N 34°42' E 135°21'0 0.0
2017-Nov-03 23:49N 34°42' E 135°21'0 0.0
2017-Nov-03 23:25N 34°42' E 135°21'0 0.0
2017-Nov-03 22:49N 34°42' E 135°21'0 0.0
2017-Nov-03 22:19N 34°42' E 135°21'0 0.0
2017-Nov-03 21:55N 34°42' E 135°21'0 0.0
2017-Nov-03 21:25N 34°42' E 135°21'0 0.0
2017-Nov-03 20:55N 34°42' E 135°21'0 0.0
2017-Nov-03 20:25N 34°42' E 135°21'0 0.0
2017-Nov-03 19:31N 34°42' E 135°21'0 0.0
2017-Nov-03 19:25N 34°42' E 135°21'0 0.0
2017-Nov-03 18:55N 34°42' E 135°21'0 0.0
2017-Nov-03 18:25N 34°42' E 135°21'0 0.0
2017-Nov-03 17:55N 34°42' E 135°21'0 0.0
2017-Nov-03 17:25N 34°42' E 135°21'0 0.0
2017-Nov-03 16:49N 34°42' E 135°21'0 0.0
2017-Nov-03 16:25N 34°42' E 135°21'0 0.0
2017-Nov-03 15:55N 34°42' E 135°21'0 0.0
2017-Nov-03 15:19N 34°42' E 135°21'0 0.0
2017-Nov-03 14:49N 34°42' E 135°21'0 0.0
2017-Nov-03 14:25N 34°42' E 135°21'0 0.0
2017-Nov-03 13:49N 34°42' E 135°21'0 0.0
2017-Nov-03 13:25N 34°42' E 135°21'0 0.0
2017-Nov-03 12:55N 34°42' E 135°21'0 0.0
2017-Nov-03 12:25N 34°42' E 135°21'0 0.0
2017-Nov-03 11:55N 34°42' E 135°21'0 0.0
2017-Nov-03 11:19N 34°42' E 135°21'0 0.0
2017-Nov-03 10:55N 34°42' E 135°21'0 0.0
2017-Nov-03 10:25N 34°42' E 135°21'0 0.0
2017-Nov-03 09:55N 34°42' E 135°21'0 0.0
2017-Nov-03 08:55N 34°42' E 135°21'0 0.0
2017-Nov-03 08:25N 34°42' E 135°21'0 0.0
2017-Nov-03 07:55N 34°42' E 135°21'0 0.0
2017-Nov-03 07:19N 34°42' E 135°21'0 0.0
2017-Nov-03 06:49N 34°42' E 135°21'0 0.0
2017-Nov-03 06:25N 34°42' E 135°21'0 0.0
2017-Nov-03 05:55N 34°42' E 135°21'0 0.0
2017-Nov-03 05:19N 34°42' E 135°21'0 0.0
2017-Nov-03 04:55N 34°42' E 135°21'0 0.0
2017-Nov-03 04:25N 34°42' E 135°21'0 0.0
2017-Nov-03 03:55N 34°42' E 135°21'0 0.0
2017-Nov-03 03:25N 34°42' E 135°21'0 0.0
2017-Nov-03 02:55N 34°42' E 135°21'0 0.0
2017-Nov-03 02:25N 34°42' E 135°21'0 0.0
2017-Nov-03 01:13N 34°42' E 135°21'0 0.0
2017-Nov-03 00:55N 34°42' E 135°21'0 0.0
2017-Nov-03 00:07N 34°42' E 135°21'0 0.0
2017-Nov-02 23:55N 34°42' E 135°21'0 0.0
2017-Nov-02 23:25N 34°42' E 135°21'0 0.0
2017-Nov-02 22:49N 34°42' E 135°21'0 0.0
2017-Nov-02 22:25N 34°42' E 135°21'0 0.0
2017-Nov-02 21:55N 34°42' E 135°21'0 0.0
2017-Nov-02 21:25N 34°42' E 135°21'0 0.0
2017-Nov-02 20:55N 34°42' E 135°21'0 0.0
2017-Nov-02 20:25N 34°42' E 135°21'0 0.0
2017-Nov-02 19:55N 34°42' E 135°21'0 0.0
2017-Nov-02 19:25N 34°42' E 135°21'0 0.0
2017-Nov-02 18:55N 34°42' E 135°21'0 0.0
2017-Nov-02 18:25N 34°42' E 135°21'0 0.0
2017-Nov-02 17:55N 34°42' E 135°21'0 0.0
2017-Nov-02 17:25N 34°42' E 135°21'0 0.0
2017-Nov-02 16:55N 34°42' E 135°21'0 0.0
2017-Nov-02 16:25N 34°42' E 135°21'0 0.0
2017-Nov-02 15:55N 34°42' E 135°21'0 0.0
2017-Nov-02 15:25N 34°42' E 135°21'0 0.0
2017-Nov-02 14:55N 34°42' E 135°21'0 0.0
2017-Nov-02 14:25N 34°42' E 135°21'0 0.0
2017-Nov-02 13:49N 34°42' E 135°21'0 0.0
2017-Nov-02 13:25N 34°42' E 135°21'0 0.0
2017-Nov-02 12:55N 34°42' E 135°21'0 0.0
2017-Nov-02 12:25N 34°42' E 135°21'0 0.0
2017-Nov-02 11:43N 34°42' E 135°21'0 0.0
2017-Nov-02 11:25N 34°42' E 135°21'0 0.0
2017-Nov-02 10:55N 34°42' E 135°21'0 0.0
2017-Nov-02 10:25N 34°42' E 135°21'0 0.0
2017-Nov-02 09:55N 34°42' E 135°21'0 0.0
2017-Nov-02 09:25N 34°42' E 135°21'0 0.0
2017-Nov-02 08:55N 34°42' E 135°21'0 0.0
2017-Nov-02 08:25N 34°42' E 135°21'0 0.0
2017-Nov-02 07:55N 34°42' E 135°21'0 0.0
2017-Nov-02 07:25N 34°42' E 135°21'0 0.0
2017-Nov-02 06:49N 34°42' E 135°21'0 0.0
2017-Nov-02 06:19N 34°42' E 135°21'0 0.0
2017-Nov-02 05:37N 34°42' E 135°21'0 0.0
2017-Nov-02 05:25N 34°42' E 135°21'0 0.0
2017-Nov-02 04:49N 34°42' E 135°21'0 0.0
2017-Nov-02 04:25N 34°42' E 135°21'0 0.0
2017-Nov-02 03:55N 34°42' E 135°21'0 0.0
2017-Nov-02 03:25N 34°42' E 135°21'0 0.0
2017-Nov-02 02:55N 34°42' E 135°21'0 0.0
2017-Nov-02 02:25N 34°42' E 135°21'0 0.0
2017-Nov-02 01:49N 34°42' E 135°21'0 0.0
2017-Nov-02 01:19N 34°42' E 135°21'0 0.0
2017-Nov-02 00:55N 34°42' E 135°21'0 0.0
2017-Nov-02 00:25N 34°42' E 135°21'0 0.0
2017-Nov-01 23:49N 34°42' E 135°21'0 0.0
2017-Nov-01 23:25N 34°42' E 135°21'0 0.0
2017-Nov-01 22:55N 34°42' E 135°21'0 0.0
2017-Nov-01 22:07N 34°42' E 135°21'0 0.0
2017-Nov-01 21:55N 34°42' E 135°21'0 0.0
2017-Nov-01 21:19N 34°42' E 135°21'0 0.0
2017-Nov-01 20:55N 34°42' E 135°21'0 0.0
2017-Nov-01 20:25N 34°42' E 135°21'0 0.0
2017-Nov-01 19:55N 34°42' E 135°21'0 0.0
2017-Nov-01 19:25N 34°42' E 135°21'0 0.0
2017-Nov-01 18:55N 34°42' E 135°21'0 0.0
2017-Nov-01 18:25N 34°42' E 135°21'0 0.0
2017-Nov-01 01:31N 34°42' E 135°21'0 0.0
2017-Nov-01 01:19N 34°42' E 135°21'0 0.0
2017-Nov-01 00:49N 34°42' E 135°21'0 0.0
2017-Nov-01 00:25N 34°42' E 135°21'0 0.0
2017-Oct-31 23:55N 34°42' E 135°21'0 0.0
2017-Oct-31 23:25N 34°42' E 135°21'0 0.0
2017-Oct-31 22:49N 34°42' E 135°21'0 0.0
2017-Oct-31 22:25N 34°42' E 135°21'0 0.0
2017-Oct-31 21:55N 34°42' E 135°21'0 0.0
2017-Oct-31 21:25N 34°42' E 135°21'0 0.0
2017-Oct-31 20:55N 34°42' E 135°21'0 0.0
2017-Oct-31 20:25N 34°42' E 135°21'0 0.0
2017-Oct-31 19:55N 34°42' E 135°21'0 0.0
2017-Oct-31 19:25N 34°42' E 135°21'0 0.0
2017-Oct-31 18:55N 34°42' E 135°21'0 0.0
2017-Oct-31 18:25N 34°42' E 135°21'0 0.0
2017-Oct-31 17:55N 34°42' E 135°21'0 0.0
2017-Oct-31 17:19N 34°42' E 135°21'0 0.0
2017-Oct-31 16:55N 34°42' E 135°21'0 0.0
2017-Oct-31 16:25N 34°42' E 135°21'0 0.0
2017-Oct-31 15:55N 34°42' E 135°21'0 0.0
2017-Oct-31 15:25N 34°42' E 135°21'0 0.0
2017-Oct-31 14:55N 34°42' E 135°21'0 0.0
2017-Oct-31 14:19N 34°42' E 135°21'0 0.0
2017-Oct-31 13:55N 34°42' E 135°21'0 0.0
2017-Oct-31 13:25N 34°42' E 135°21'0 0.0
2017-Oct-31 12:55N 34°42' E 135°21'  
Track history (hours):
 
Tides and Currents Weather Stations Pressure Air Temp Water Temp Dewpoint Dewpoint Depression Visibility Wind Speed Wind Dir Waves Ship Positions

August Explorer

Last reported at 2017-Nov-10 12:26 UTC. Time now 2017-Dec-12 21:57 UTC.
Position N 34°47' E 139°42'.
Warning: this ship's position is 32 days out of date.

Length 90 m; draft 3.4 m.

Type: Other ship. MMSI: 431370000.

Date/timePositionNaut miles runAvg speedWind from/ knotsBaromVisibWave heightAir tempDewpointWater temp
2017-Nov-10 12:26N 34°47' E 139°42'5 8.0
2017-Nov-10 11:51N 34°52' E 139°43'5 9.3
2017-Nov-10 11:20N 34°57' E 139°43'3 9.8
2017-Nov-10 11:00N 34°60' E 139°44'5 9.6
2017-Nov-10 10:30N 35°05' E 139°45'5 9.5
2017-Nov-10 10:00N 35°09' E 139°46'5 9.4
2017-Nov-10 09:30N 35°14' E 139°46'5 9.2
2017-Nov-10 09:00N 35°18' E 139°44'5 9.1
2017-Nov-10 08:31N 35°22' E 139°42'5 9.1
2017-Nov-10 08:01N 35°27' E 139°43'2 4.3
2017-Nov-10 07:30N 35°28' E 139°41'0 0.1
2017-Nov-10 06:58N 35°28' E 139°41'0 0.0
2017-Nov-10 06:28N 35°28' E 139°41'0 0.0
2017-Nov-10 05:58N 35°28' E 139°41'0 0.0
2017-Nov-10 05:28N 35°28' E 139°41'0 0.0
2017-Nov-10 04:58N 35°28' E 139°41'0 0.0
2017-Nov-10 04:28N 35°28' E 139°41'0 0.0
2017-Nov-10 03:58N 35°28' E 139°41'0 0.0
2017-Nov-10 03:28N 35°28' E 139°41'0 0.0
2017-Nov-10 02:58N 35°28' E 139°41'0 0.0
2017-Nov-10 02:28N 35°28' E 139°41'0 0.0
2017-Nov-10 01:58N 35°28' E 139°41'0 0.0
2017-Nov-10 01:28N 35°28' E 139°41'0 0.0
2017-Nov-10 00:58N 35°28' E 139°41'0 0.0
2017-Nov-10 00:28N 35°28' E 139°41'0 0.0
2017-Nov-09 23:58N 35°28' E 139°41'0 0.0
2017-Nov-09 23:25N 35°28' E 139°41'0 0.0
2017-Nov-09 22:58N 35°28' E 139°41'0 0.0
2017-Nov-09 22:31N 35°28' E 139°41'3 5.4
2017-Nov-09 22:00N 35°27' E 139°44'4 7.1
2017-Nov-09 21:31N 35°28' E 139°48'4 7.3
2017-Nov-09 21:00N 35°30' E 139°52'3 5.4
2017-Nov-09 20:30N 35°29' E 139°55'0 0.2
2017-Nov-09 19:58N 35°29' E 139°55'0 0.0
2017-Nov-09 19:28N 35°29' E 139°55'0 0.1
2017-Nov-09 18:58N 35°29' E 139°55'0 0.0
2017-Nov-09 18:19N 35°29' E 139°55'0 0.0
2017-Nov-09 17:58N 35°29' E 139°55'0 0.0
2017-Nov-09 17:28N 35°29' E 139°55'0 0.0
2017-Nov-09 16:55N 35°29' E 139°55'0 0.0
2017-Nov-09 16:25N 35°29' E 139°55'0 0.0
2017-Nov-09 15:52N 35°29' E 139°55'0 0.0
2017-Nov-09 15:28N 35°29' E 139°55'0 0.0
2017-Nov-09 14:58N 35°29' E 139°55'0 0.0
2017-Nov-09 14:28N 35°29' E 139°55'0 0.0
2017-Nov-09 13:58N 35°29' E 139°55'0 0.0
2017-Nov-09 13:28N 35°29' E 139°55'0 0.0
2017-Nov-09 12:58N 35°29' E 139°55'0 0.0
2017-Nov-09 12:28N 35°29' E 139°55'0 0.0
2017-Nov-09 11:58N 35°29' E 139°55'0 0.0
2017-Nov-09 11:22N 35°29' E 139°55'0 0.0
2017-Nov-09 10:46N 35°29' E 139°55'0 0.0
2017-Nov-09 10:25N 35°29' E 139°55'0 0.0
2017-Nov-09 09:55N 35°29' E 139°55'0 0.0
2017-Nov-09 09:28N 35°29' E 139°55'0 0.1
2017-Nov-09 08:55N 35°29' E 139°55'0 0.0
2017-Nov-09 08:28N 35°29' E 139°55'0 0.0
2017-Nov-09 07:58N 35°29' E 139°55'1 1.6
2017-Nov-09 07:30N 35°29' E 139°55'3 5.8
2017-Nov-09 07:00N 35°27' E 139°58'0 0.1
2017-Nov-09 03:40N 35°27' E 139°57'0 0.0
2017-Nov-09 03:28N 35°27' E 139°57'0 0.0
2017-Nov-08 22:40N 35°27' E 139°57'0 0.0
2017-Nov-08 18:52N 35°27' E 139°57'0 0.0
2017-Nov-07 22:17N 35°27' E 139°57'1 4.9
2017-Nov-07 22:01N 35°28' E 139°58'3 5.3
2017-Nov-07 21:30N 35°29' E 139°55'4 7.7
2017-Nov-07 21:01N 35°28' E 139°51'4 8.0
2017-Nov-07 20:30N 35°25' E 139°47'4 8.5
2017-Nov-07 20:00N 35°21' E 139°45'5 9.8
2017-Nov-07 19:30N 35°16' E 139°46'510.4
2017-Nov-07 18:59N 35°11' E 139°47'4 8.3
2017-Nov-07 18:30N 35°07' E 139°45'5 6.4
2017-Nov-07 17:42N 35°03' E 139°42'1 6.7
2017-Nov-07 17:29N 35°02' E 139°40'214 5.5
2017-Nov-06 02:20N 34°42' E 135°21'0 0.0
2017-Nov-06 01:56N 34°42' E 135°21'0 0.0
2017-Nov-06 01:26N 34°42' E 135°21'0 0.0
2017-Nov-06 00:56N 34°42' E 135°21'0 0.0
2017-Nov-06 00:20N 34°42' E 135°21'0 0.0
2017-Nov-05 23:56N 34°42' E 135°21'0 0.0
2017-Nov-05 23:26N 34°42' E 135°21'0 0.0
2017-Nov-05 22:56N 34°42' E 135°21'0 0.0
2017-Nov-05 22:20N 34°42' E 135°21'0 0.0
2017-Nov-05 21:56N 34°42' E 135°21'0 0.0
2017-Nov-05 21:26N 34°42' E 135°21'0 0.0
2017-Nov-05 20:56N 34°42' E 135°21'0 0.0
2017-Nov-05 20:14N 34°42' E 135°21'0 0.0
2017-Nov-05 19:56N 34°42' E 135°21'0 0.0
2017-Nov-05 19:26N 34°42' E 135°21'0 0.0
2017-Nov-05 18:56N 34°42' E 135°21'0 0.0
2017-Nov-05 18:26N 34°42' E 135°21'0 0.0
2017-Nov-05 17:56N 34°42' E 135°21'0 0.0
2017-Nov-05 17:26N 34°42' E 135°21'0 0.0
2017-Nov-05 16:56N 34°42' E 135°21'0 0.0
2017-Nov-05 16:26N 34°42' E 135°21'0 0.0
2017-Nov-05 15:56N 34°42' E 135°21'0 0.0
2017-Nov-05 15:14N 34°42' E 135°21'0 0.0
2017-Nov-05 14:56N 34°42' E 135°21'0 0.0
2017-Nov-05 14:26N 34°42' E 135°21'0 0.0
2017-Nov-05 13:56N 34°42' E 135°21'0 0.0
2017-Nov-05 13:26N 34°42' E 135°21'0 0.0
2017-Nov-05 12:50N 34°42' E 135°21'0 0.0
2017-Nov-05 12:26N 34°42' E 135°21'0 0.0
2017-Nov-05 11:56N 34°42' E 135°21'0 0.0
2017-Nov-05 11:26N 34°42' E 135°21'0 0.0
2017-Nov-05 10:32N 34°42' E 135°21'0 0.0
2017-Nov-05 10:26N 34°42' E 135°21'0 0.0
2017-Nov-05 09:50N 34°42' E 135°21'0 0.0
2017-Nov-05 09:26N 34°42' E 135°21'0 0.0
2017-Nov-05 08:50N 34°42' E 135°21'0 0.0
2017-Nov-05 08:26N 34°42' E 135°21'0 0.0
2017-Nov-05 07:55N 34°42' E 135°21'0 0.0
2017-Nov-05 07:26N 34°42' E 135°21'0 0.0
2017-Nov-05 06:56N 34°42' E 135°21'0 0.0
2017-Nov-05 06:26N 34°42' E 135°21'0 0.0
2017-Nov-05 05:56N 34°42' E 135°21'0 0.0
2017-Nov-05 05:25N 34°42' E 135°21'0 0.0
2017-Nov-05 04:56N 34°42' E 135°21'0 0.0
2017-Nov-05 04:26N 34°42' E 135°21'0 0.0
2017-Nov-05 03:49N 34°42' E 135°21'0 0.0
2017-Nov-05 03:26N 34°42' E 135°21'0 0.0
2017-Nov-05 02:56N 34°42' E 135°21'0 0.0
2017-Nov-05 02:26N 34°42' E 135°21'0 0.0
2017-Nov-05 01:50N 34°42' E 135°21'0 0.0
2017-Nov-05 01:25N 34°42' E 135°21'0 0.0
2017-Nov-05 00:56N 34°42' E 135°21'0 0.0
2017-Nov-05 00:26N 34°42' E 135°21'0 0.0
2017-Nov-04 23:56N 34°42' E 135°21'0 0.0
2017-Nov-04 23:26N 34°42' E 135°21'0 0.0
2017-Nov-04 22:56N 34°42' E 135°21'0 0.0
2017-Nov-04 22:26N 34°42' E 135°21'0 0.0
2017-Nov-04 21:56N 34°42' E 135°21'0 0.0
2017-Nov-04 21:26N 34°42' E 135°21'0 0.0
2017-Nov-04 20:55N 34°42' E 135°21'0 0.0
2017-Nov-04 20:26N 34°42' E 135°21'0 0.0
2017-Nov-04 19:55N 34°42' E 135°21'0 0.0
2017-Nov-04 19:19N 34°42' E 135°21'0 0.0
2017-Nov-04 18:50N 34°42' E 135°21'0 0.0
2017-Nov-04 18:26N 34°42' E 135°21'0 0.0
2017-Nov-04 17:55N 34°42' E 135°21'0 0.0
2017-Nov-04 17:20N 34°42' E 135°21'0 0.0
2017-Nov-04 16:55N 34°42' E 135°21'0 0.0
2017-Nov-04 16:20N 34°42' E 135°21'0 0.0
2017-Nov-04 15:50N 34°42' E 135°21'0 0.0
2017-Nov-04 15:26N 34°42' E 135°21'0 0.0
2017-Nov-04 14:55N 34°42' E 135°21'0 0.0
2017-Nov-04 14:26N 34°42' E 135°21'0 0.0
2017-Nov-04 13:55N 34°42' E 135°21'0 0.0
2017-Nov-04 13:26N 34°42' E 135°21'0 0.0
2017-Nov-04 12:56N 34°42' E 135°21'0 0.0
2017-Nov-04 12:26N 34°42' E 135°21'0 0.0
2017-Nov-04 11:49N 34°42' E 135°21'0 0.0
2017-Nov-04 11:25N 34°42' E 135°21'0 0.0
2017-Nov-04 10:49N 34°42' E 135°21'0 0.0
2017-Nov-04 10:19N 34°42' E 135°21'0 0.0
2017-Nov-04 09:56N 34°42' E 135°21'0 0.0
2017-Nov-04 09:26N 34°42' E 135°21'0 0.0
2017-Nov-04 08:55N 34°42' E 135°21'0 0.0
2017-Nov-04 08:25N 34°42' E 135°21'0 0.0
2017-Nov-04 07:55N 34°42' E 135°21'0 0.0
2017-Nov-04 07:25N 34°42' E 135°21'0 0.0
2017-Nov-04 06:55N 34°42' E 135°21'0 0.0
2017-Nov-04 06:19N 34°42' E 135°21'0 0.0
2017-Nov-04 05:55N 34°42' E 135°21'0 0.0
2017-Nov-04 05:14N 34°42' E 135°21'0 0.0
2017-Nov-04 04:55N 34°42' E 135°21'0 0.0
2017-Nov-04 04:25N 34°42' E 135°21'0 0.0
2017-Nov-04 03:49N 34°42' E 135°21'0 0.0
2017-Nov-04 03:25N 34°42' E 135°21'0 0.0
2017-Nov-04 02:55N 34°42' E 135°21'0 0.0
2017-Nov-04 02:19N 34°42' E 135°21'0 0.0
2017-Nov-04 01:55N 34°42' E 135°21'0 0.0
2017-Nov-04 01:25N 34°42' E 135°21'0 0.0
2017-Nov-04 00:55N 34°42' E 135°21'0 0.0
2017-Nov-04 00:19N 34°42' E 135°21'0 0.0
2017-Nov-03 23:49N 34°42' E 135°21'0 0.0
2017-Nov-03 23:25N 34°42' E 135°21'0 0.0
2017-Nov-03 22:49N 34°42' E 135°21'0 0.0
2017-Nov-03 22:19N 34°42' E 135°21'0 0.0
2017-Nov-03 21:55N 34°42' E 135°21'0 0.0
2017-Nov-03 21:25N 34°42' E 135°21'0 0.0
2017-Nov-03 20:55N 34°42' E 135°21'0 0.0
2017-Nov-03 20:25N 34°42' E 135°21'0 0.0
2017-Nov-03 19:31N 34°42' E 135°21'0 0.0
2017-Nov-03 19:25N 34°42' E 135°21'0 0.0
2017-Nov-03 18:55N 34°42' E 135°21'0 0.0
2017-Nov-03 18:25N 34°42' E 135°21'0 0.0
2017-Nov-03 17:55N 34°42' E 135°21'0 0.0
2017-Nov-03 17:25N 34°42' E 135°21'0 0.0
2017-Nov-03 16:49N 34°42' E 135°21'0 0.0
2017-Nov-03 16:25N 34°42' E 135°21'0 0.0
2017-Nov-03 15:55N 34°42' E 135°21'0 0.0
2017-Nov-03 15:19N 34°42' E 135°21'0 0.0
2017-Nov-03 14:49N 34°42' E 135°21'0 0.0
2017-Nov-03 14:25N 34°42' E 135°21'0 0.0
2017-Nov-03 13:49N 34°42' E 135°21'0 0.0
2017-Nov-03 13:25N 34°42' E 135°21'0 0.0
2017-Nov-03 12:55N 34°42' E 135°21'0 0.0
2017-Nov-03 12:25N 34°42' E 135°21'0 0.0
2017-Nov-03 11:55N 34°42' E 135°21'0 0.0
2017-Nov-03 11:19N 34°42' E 135°21'0 0.0
2017-Nov-03 10:55N 34°42' E 135°21'0 0.0
2017-Nov-03 10:25N 34°42' E 135°21'0 0.0
2017-Nov-03 09:55N 34°42' E 135°21'0 0.0
2017-Nov-03 08:55N 34°42' E 135°21'0 0.0
2017-Nov-03 08:25N 34°42' E 135°21'0 0.0
2017-Nov-03 07:55N 34°42' E 135°21'0 0.0
2017-Nov-03 07:19N 34°42' E 135°21'0 0.0
2017-Nov-03 06:49N 34°42' E 135°21'0 0.0
2017-Nov-03 06:25N 34°42' E 135°21'0 0.0
2017-Nov-03 05:55N 34°42' E 135°21'0 0.0
2017-Nov-03 05:19N 34°42' E 135°21'0 0.0
2017-Nov-03 04:55N 34°42' E 135°21'0 0.0
2017-Nov-03 04:25N 34°42' E 135°21'0 0.0
2017-Nov-03 03:55N 34°42' E 135°21'0 0.0
2017-Nov-03 03:25N 34°42' E 135°21'0 0.0
2017-Nov-03 02:55N 34°42' E 135°21'0 0.0
2017-Nov-03 02:25N 34°42' E 135°21'0 0.0
2017-Nov-03 01:13N 34°42' E 135°21'0 0.0
2017-Nov-03 00:55N 34°42' E 135°21'0 0.0
2017-Nov-03 00:07N 34°42' E 135°21'0 0.0
2017-Nov-02 23:55N 34°42' E 135°21'0 0.0
2017-Nov-02 23:25N 34°42' E 135°21'0 0.0
2017-Nov-02 22:49N 34°42' E 135°21'0 0.0
2017-Nov-02 22:25N 34°42' E 135°21'0 0.0
2017-Nov-02 21:55N 34°42' E 135°21'0 0.0
2017-Nov-02 21:25N 34°42' E 135°21'0 0.0
2017-Nov-02 20:55N 34°42' E 135°21'0 0.0
2017-Nov-02 20:25N 34°42' E 135°21'0 0.0
2017-Nov-02 19:55N 34°42' E 135°21'0 0.0
2017-Nov-02 19:25N 34°42' E 135°21'0 0.0
2017-Nov-02 18:55N 34°42' E 135°21'0 0.0
2017-Nov-02 18:25N 34°42' E 135°21'0 0.0
2017-Nov-02 17:55N 34°42' E 135°21'0 0.0
2017-Nov-02 17:25N 34°42' E 135°21'0 0.0
2017-Nov-02 16:55N 34°42' E 135°21'0 0.0
2017-Nov-02 16:25N 34°42' E 135°21'0 0.0
2017-Nov-02 15:55N 34°42' E 135°21'0 0.0
2017-Nov-02 15:25N 34°42' E 135°21'0 0.0
2017-Nov-02 14:55N 34°42' E 135°21'0 0.0
2017-Nov-02 14:25N 34°42' E 135°21'0 0.0
2017-Nov-02 13:49N 34°42' E 135°21'0 0.0
2017-Nov-02 13:25N 34°42' E 135°21'0 0.0
2017-Nov-02 12:55N 34°42' E 135°21'0 0.0
2017-Nov-02 12:25N 34°42' E 135°21'0 0.0
2017-Nov-02 11:43N 34°42' E 135°21'0 0.0
2017-Nov-02 11:25N 34°42' E 135°21'0 0.0
2017-Nov-02 10:55N 34°42' E 135°21'0 0.0
2017-Nov-02 10:25N 34°42' E 135°21'0 0.0
2017-Nov-02 09:55N 34°42' E 135°21'0 0.0
2017-Nov-02 09:25N 34°42' E 135°21'0 0.0
2017-Nov-02 08:55N 34°42' E 135°21'0 0.0
2017-Nov-02 08:25N 34°42' E 135°21'0 0.0
2017-Nov-02 07:55N 34°42' E 135°21'0 0.0
2017-Nov-02 07:25N 34°42' E 135°21'0 0.0
2017-Nov-02 06:49N 34°42' E 135°21'0 0.0
2017-Nov-02 06:19N 34°42' E 135°21'0 0.0
2017-Nov-02 05:37N 34°42' E 135°21'0 0.0
2017-Nov-02 05:25N 34°42' E 135°21'0 0.0
2017-Nov-02 04:49N 34°42' E 135°21'0 0.0
2017-Nov-02 04:25N 34°42' E 135°21'0 0.0
2017-Nov-02 03:55N 34°42' E 135°21'0 0.0
2017-Nov-02 03:25N 34°42' E 135°21'0 0.0
2017-Nov-02 02:55N 34°42' E 135°21'0 0.0
2017-Nov-02 02:25N 34°42' E 135°21'0 0.0
2017-Nov-02 01:49N 34°42' E 135°21'0 0.0
2017-Nov-02 01:19N 34°42' E 135°21'0 0.0
2017-Nov-02 00:55N 34°42' E 135°21'0 0.0
2017-Nov-02 00:25N 34°42' E 135°21'0 0.0
2017-Nov-01 23:49N 34°42' E 135°21'0 0.0
2017-Nov-01 23:25N 34°42' E 135°21'0 0.0
2017-Nov-01 22:55N 34°42' E 135°21'0 0.0
2017-Nov-01 22:07N 34°42' E 135°21'0 0.0
2017-Nov-01 21:55N 34°42' E 135°21'0 0.0
2017-Nov-01 21:19N 34°42' E 135°21'0 0.0
2017-Nov-01 20:55N 34°42' E 135°21'0 0.0
2017-Nov-01 20:25N 34°42' E 135°21'0 0.0
2017-Nov-01 19:55N 34°42' E 135°21'0 0.0
2017-Nov-01 19:25N 34°42' E 135°21'0 0.0
2017-Nov-01 18:55N 34°42' E 135°21'0 0.0
2017-Nov-01 18:25N 34°42' E 135°21'0 0.0
2017-Nov-01 01:31N 34°42' E 135°21'0 0.0
2017-Nov-01 01:19N 34°42' E 135°21'0 0.0
2017-Nov-01 00:49N 34°42' E 135°21'0 0.0
2017-Nov-01 00:25N 34°42' E 135°21'0 0.0
2017-Oct-31 23:55N 34°42' E 135°21'0 0.0
2017-Oct-31 23:25N 34°42' E 135°21'0 0.0
2017-Oct-31 22:49N 34°42' E 135°21'0 0.0
2017-Oct-31 22:25N 34°42' E 135°21'0 0.0
2017-Oct-31 21:55N 34°42' E 135°21'0 0.0
2017-Oct-31 21:25N 34°42' E 135°21'0 0.0
2017-Oct-31 20:55N 34°42' E 135°21'0 0.0
2017-Oct-31 20:25N 34°42' E 135°21'0 0.0
2017-Oct-31 19:55N 34°42' E 135°21'0 0.0
2017-Oct-31 19:25N 34°42' E 135°21'0 0.0
2017-Oct-31 18:55N 34°42' E 135°21'0 0.0
2017-Oct-31 18:25N 34°42' E 135°21'0 0.0
2017-Oct-31 17:55N 34°42' E 135°21'0 0.0
2017-Oct-31 17:19N 34°42' E 135°21'0 0.0
2017-Oct-31 16:55N 34°42' E 135°21'0 0.0
2017-Oct-31 16:25N 34°42' E 135°21'0 0.0
2017-Oct-31 15:55N 34°42' E 135°21'0 0.0
2017-Oct-31 15:25N 34°42' E 135°21'0 0.0
2017-Oct-31 14:55N 34°42' E 135°21'0 0.0
2017-Oct-31 14:19N 34°42' E 135°21'0 0.0
2017-Oct-31 13:55N 34°42' E 135°21'0 0.0
2017-Oct-31 13:25N 34°42' E 135°21'0 0.0
2017-Oct-31 12:55N 34°42' E 135°21'  

Dump ship's entire track history